Time;durP1;ratioP1;P1;durP2;ratioP2;P2;SDS_P1;SDS_P2;PMS_P1;PMS_P2;Temp;Humidity;BMP_temperature;BMP_pressure;BME280_temperature;BME280_humidity;BME280_pressure;Samples;Min_cycle;Max_cycle;Signal;HPM_P1;HPM_P2
2022/04/05 00:13:42;;;;;;;;;;;;;;;;;;;;;
2022/04/05 00:24:14;;;;;;;;;;;;;;;;;;;;;
2022/04/05 00:30:43;;;;;;;4.97;4.47;;;;;;;6.71;99.39;98839.75;4798082;29;20128;-94
2022/04/05 00:40:42;;;;;;;4.85;4.22;;;;;;;6.74;99.58;98842.97;4864773;29;20156;-93
2022/04/05 00:43:16;;;;;;;5.57;4.28;;;;;;;6.74;99.56;98842.13;4849517;29;20068;-93
2022/04/05 00:56:34;;;;;;;;;;;;;;;;;;;;;
2022/04/05 01:33:58;;;;;;;5.50;4.93;;;;;;;6.88;100.00;98844.34;4804497;29;21166;-94
2022/04/05 01:46:23;;;;;;;5.68;4.97;;;;;;;6.91;100.00;98833.44;4867222;29;20470;-94
2022/04/05 02:00:41;;;;;;;6.90;6.20;;;;;;;6.91;100.00;98823.66;4777150;30;20051;-94
2022/04/05 09:28:24;;;;;;;11.00;8.70;;;;;;;8.23;100.00;98937.03;6097026;23;20026;31
2022/04/05 09:30:51;;;;;;;11.77;8.95;;;;;;;8.24;100.00;98936.06;4965010;29;20031;-88
2022/04/05 09:42:25;;;;;;;10.18;7.93;;;;;;;8.24;100.00;98933.38;4944133;29;20027;-93
2022/04/05 10:03:51;;;;;;;10.02;7.70;;;;;;;8.47;100.00;98934.69;4888866;29;20121;-93
2022/04/05 10:07:06;;;;;;;12.82;8.15;;;;;;;8.51;100.00;98936.09;4870607;29;20040;-93
2022/04/05 10:34:21;;;;;;;;;;;;;;;;;;;;;
2022/04/05 14:55:07;;;;;;;;;;;;;;;;;;;;;
2022/04/05 15:12:26;;;;;;;;;;;;;;;;;;;;;
2022/04/05 16:58:59;;;;;;;11.15;8.10;;;;;;;9.84;100.00;98826.53;5799684;23;20140;-91
2022/04/05 17:01:28;;;;;;;10.15;7.88;;;;;;;9.85;100.00;98822.88;4941935;28;20047;-92
2022/04/05 17:03:59;;;;;;;10.77;7.60;;;;;;;9.86;100.00;98829.03;4925626;29;20062;-92
2022/04/05 17:15:57;;;;;;;10.07;7.63;;;;;;;9.85;100.00;98827.38;5251621;23;20074;-91
2022/04/05 17:18:22;;;;;;;9.95;7.75;;;;;;;9.87;100.00;98823.53;4944798;28;20180;-91
2022/04/05 17:20:47;;;;;;;9.05;7.05;;;;;;;9.83;100.00;98822.19;4944420;28;20585;-90
2022/04/05 17:23:14;;;;;;;8.40;7.40;;;;;;;9.83;100.00;98814.19;4940262;28;20031;-94
2022/04/05 17:25:48;;;;;;;9.27;7.35;;;;;;;9.88;100.00;98822.53;4928904;28;20117;-90
2022/04/05 17:28:14;;;;;;;10.50;7.47;;;;;;;9.87;100.00;98814.69;4947902;28;20039;-93
2022/04/05 17:30:39;;;;;;;8.35;6.60;;;;;;;9.86;100.00;98818.38;4943378;28;20050;-91
2022/04/05 17:33:05;;;;;;;8.57;6.85;;;;;;;9.85;100.00;98825.53;4942703;28;20034;-88
2022/04/05 17:35:44;;;;;;;9.95;6.53;;;;;;;9.87;100.00;98823.53;4963859;28;20046;-91
2022/04/05 17:38:09;;;;;;;9.70;7.57;;;;;;;9.90;100.00;98823.22;4961277;28;20474;-90
2022/04/05 17:40:35;;;;;;;8.68;7.30;;;;;;;9.90;100.00;98815.22;4957216;28;20054;-90
2022/04/05 17:43:01;;;;;;;9.50;7.22;;;;;;;9.85;100.00;98822.03;4945426;28;20038;-89
2022/04/05 17:45:27;;;;;;;7.68;6.80;;;;;;;9.86;100.00;98819.19;4946991;28;20837;-89
2022/04/05 17:47:53;;;;;;;10.25;7.15;;;;;;;9.84;100.00;98818.53;4945409;28;20031;-89
2022/04/05 17:50:19;;;;;;;10.48;7.78;;;;;;;9.88;100.00;98821.72;4958602;28;20082;-90
2022/04/05 17:52:44;;;;;;;10.00;7.88;;;;;;;9.88;100.00;98821.72;4942464;28;20496;-89
2022/04/05 17:55:10;;;;;;;8.93;7.28;;;;;;;9.88;100.00;98821.72;4944829;28;20074;-89
2022/04/05 17:57:36;;;;;;;9.20;7.00;;;;;;;9.87;100.00;98825.38;4945133;28;20060;-89
2022/04/05 18:00:03;;;;;;;7.68;6.70;;;;;;;9.87;100.00;98820.88;4944606;28;20436;-89
2022/04/05 18:02:30;;;;;;;8.85;7.15;;;;;;;9.86;100.00;98813.84;4961163;28;20059;-88
2022/04/05 18:04:56;;;;;;;9.90;7.05;;;;;;;9.87;100.00;98815.53;4960208;28;20066;-89
2022/04/05 18:07:21;;;;;;;12.65;8.82;;;;;;;9.88;100.00;98811.03;4945201;28;20027;-89
2022/04/05 18:09:48;;;;;;;11.63;8.60;;;;;;;9.88;100.00;98819.88;4959683;28;20041;-89
2022/04/05 18:12:14;;;;;;;10.13;9.07;;;;;;;9.87;100.00;98812.03;4942271;28;20031;-89
2022/04/05 18:14:39;;;;;;;10.63;9.00;;;;;;;9.87;100.00;98820.88;4959850;28;20121;-89
2022/04/05 18:17:05;;;;;;;10.10;7.38;;;;;;;9.86;100.00;98818.38;4960214;28;20380;-89
2022/04/05 18:19:30;;;;;;;10.30;9.05;;;;;;;9.87;100.00;98818.19;4942498;28;20042;-89
2022/04/05 18:21:57;;;;;;;12.30;9.40;;;;;;;9.87;100.00;98826.22;4942815;28;20027;-89
2022/04/05 18:24:22;;;;;;;13.27;8.93;;;;;;;9.88;100.00;98830.56;4959048;28;20031;-89
2022/04/05 18:26:47;;;;;;;12.13;9.13;;;;;;;9.91;100.00;98826.72;4958508;28;20093;-89
2022/04/05 18:29:13;;;;;;;12.55;8.73;;;;;;;9.88;100.00;98821.72;4960840;28;20034;-89
2022/04/05 18:31:40;;;;;;;9.32;8.15;;;;;;;9.88;100.00;98830.56;4942565;28;20036;-89
2022/04/05 18:34:06;;;;;;;11.35;8.80;;;;;;;9.87;100.00;98823.53;4943667;28;20093;-89
2022/04/05 18:36:31;;;;;;;10.38;8.32;;;;;;;9.87;100.00;98831.56;4959106;28;20377;-89
2022/04/05 18:38:57;;;;;;;11.48;8.70;;;;;;;9.86;100.00;98829.88;4940977;28;20027;-89
2022/04/05 18:41:25;;;;;;;11.27;8.80;;;;;;;9.88;100.00;98837.72;4944415;28;20031;-89
2022/04/05 18:43:52;;;;;;;13.05;9.30;;;;;;;9.90;100.00;98836.56;4958730;28;20051;-89
2022/04/05 18:46:17;;;;;;;11.63;8.90;;;;;;;9.88;100.00;98840.41;4943991;28;20030;-89
2022/04/05 18:48:43;;;;;;;10.25;8.38;;;;;;;9.89;100.00;98845.56;4959018;28;20098;-89
2022/04/05 18:51:10;;;;;;;13.23;8.52;;;;;;;9.88;100.00;98851.91;4941974;28;20030;-89
2022/04/05 18:53:36;;;;;;;10.75;8.35;;;;;;;9.87;100.00;98852.06;4943419;28;20035;-86
2022/04/05 18:56:04;;;;;;;10.23;7.45;;;;;;;9.85;100.00;98854.06;4942645;28;20064;-86
2022/04/05 18:58:30;;;;;;;10.57;7.05;;;;;;;9.83;100.00;98845.38;4959606;28;20045;-86
2022/04/05 19:00:56;;;;;;;9.30;6.72;;;;;;;9.83;100.00;98872.09;4959823;28;20114;-86
2022/04/05 19:03:21;;;;;;;8.63;6.05;;;;;;;9.77;100.00;98861.06;4944629;28;20040;-86
2022/04/05 19:05:47;;;;;;;8.88;6.07;;;;;;;9.77;100.00;98866.38;4959117;28;20058;-86
2022/04/05 19:08:12;;;;;;;10.13;6.85;;;;;;;9.78;100.00;98869.91;4942885;28;20027;-86
2022/04/05 19:10:38;;;;;;;9.27;6.20;;;;;;;9.76;100.00;98871.91;4959455;28;20038;-86
2022/04/05 19:13:05;;;;;;;11.65;6.38;;;;;;;9.74;100.00;98879.22;4942456;28;20049;-86
2022/04/05 19:15:30;;;;;;;8.43;5.95;;;;;;;9.74;100.00;98881.91;4945155;28;20050;-86
2022/04/05 19:17:56;;;;;;;8.52;5.88;;;;;;;9.72;100.00;98882.06;4959610;28;20027;-86
2022/04/05 19:20:22;;;;;;;8.43;5.45;;;;;;;9.74;100.00;98880.06;4958713;28;20034;-86
2022/04/05 19:22:48;;;;;;;11.57;5.72;;;;;;;9.72;100.00;98881.22;4958120;28;20114;-86
2022/04/05 19:25:14;;;;;;;11.48;5.68;;;;;;;9.72;100.00;98883.88;4957701;28;20037;-86
2022/04/05 19:27:40;;;;;;;7.80;5.18;;;;;;;9.71;100.00;98896.41;4958584;28;20073;-86
2022/04/05 19:30:07;;;;;;;8.80;5.35;;;;;;;9.71;100.00;98887.56;4956517;28;20089;-86
2022/04/05 19:32:32;;;;;;;10.85;6.45;;;;;;;9.71;100.00;98901.72;4941633;28;20035;-86
2022/04/05 19:34:58;;;;;;;9.02;5.78;;;;;;;9.70;100.00;98904.56;4941653;28;20041;-86
2022/04/05 19:37:23;;;;;;;8.57;5.68;;;;;;;9.69;100.00;98893.06;4941233;28;20030;-86
2022/04/05 19:39:49;;;;;;;9.00;5.90;;;;;;;9.68;100.00;98894.03;4939719;28;20027;-86
2022/04/05 19:42:14;;;;;;;14.50;6.30;;;;;;;9.65;100.00;98891.69;4958512;28;20027;-86
2022/04/05 19:44:40;;;;;;;8.13;5.20;;;;;;;9.67;100.00;98891.53;4942443;28;20113;-86
2022/04/05 19:47:05;;;;;;;9.77;5.28;;;;;;;9.67;100.00;98888.88;4956846;28;20018;-86
2022/04/05 19:49:31;;;;;;;8.88;5.15;;;;;;;9.65;100.00;98878.34;4941939;28;20030;-86
2022/04/05 19:51:56;;;;;;;10.32;5.75;;;;;;;9.65;100.00;98877.50;4941164;28;20031;-86
2022/04/05 19:54:22;;;;;;;9.70;4.78;;;;;;;9.65;100.00;98882.84;4955029;28;20520;-86
2022/04/05 19:56:47;;;;;;;10.85;5.30;;;;;;;9.62;100.00;98885.84;4940228;28;20058;-86
2022/04/05 19:59:12;;;;;;;6.05;4.30;;;;;;;9.67;100.00;98883.53;4940807;28;20104;-86
2022/04/05 20:01:39;;;;;;;8.52;4.80;;;;;;;9.62;100.00;98885.84;4940205;28;20039;-86
2022/04/05 20:04:06;;;;;;;9.82;4.88;;;;;;;9.59;100.00;98881.66;4939221;28;20031;-86
2022/04/05 20:06:36;;;;;;;9.38;4.93;;;;;;;9.63;100.00;98891.03;4955970;28;20401;-86
2022/04/05 20:09:02;;;;;;;8.07;4.78;;;;;;;9.60;100.00;98880.66;4938939;28;20067;-86
2022/04/05 20:11:28;;;;;;;9.10;4.97;;;;;;;9.58;100.00;98882.66;4956079;28;20105;-86
2022/04/05 20:13:53;;;;;;;10.88;4.80;;;;;;;9.55;100.00;98879.47;4943083;28;20034;-86
2022/04/05 20:19:02;;;;;;;10.77;5.20;;;;;;;9.57;100.00;98888.16;4955977;28;20046;-87
2022/04/05 20:21:28;;;;;;;10.95;4.63;;;;;;;9.53;100.00;98887.63;4959485;28;20039;-86
2022/04/05 20:23:57;;;;;;;7.60;4.60;;;;;;;9.52;100.00;98891.28;4957411;28;20027;-86
2022/04/05 20:26:23;;;;;;;7.82;4.50;;;;;;;9.52;100.00;98887.78;4942194;28;20026;-86
2022/04/05 20:28:49;;;;;;;10.40;5.00;;;;;;;9.53;100.00;98892.13;4959687;28;20039;-86
2022/04/05 20:31:14;;;;;;;11.95;5.13;;;;;;;9.56;100.00;98887.31;4956853;28;20027;-86
2022/04/05 20:33:41;;;;;;;8.70;4.97;;;;;;;9.54;100.00;98888.47;4957523;28;20042;-86
2022/04/05 20:36:09;;;;;;;7.55;4.63;;;;;;;9.57;100.00;98888.97;4941653;28;20038;-86
2022/04/05 20:38:36;;;;;;;10.40;5.00;;;;;;;9.48;100.00;98887.25;4956524;28;20169;-86
2022/04/05 20:41:04;;;;;;;13.07;5.00;;;;;;;9.46;100.00;98891.91;4942432;28;20035;-86
2022/04/05 20:43:29;;;;;;;12.30;4.80;;;;;;;9.49;100.00;98885.44;4958252;28;20066;-86
2022/04/05 20:45:54;;;;;;;10.23;4.70;;;;;;;9.49;100.00;98883.59;4940045;28;20534;-86
2022/04/05 20:48:20;;;;;;;9.60;4.78;;;;;;;9.51;100.00;98881.59;4957638;28;20611;-86
2022/04/05 20:50:45;;;;;;;10.00;4.70;;;;;;;9.46;100.00;98883.91;4955968;28;20539;-86
2022/04/05 20:53:12;;;;;;;12.90;4.70;;;;;;;9.44;100.00;98876.03;4954488;28;20472;-86
2022/04/05 20:55:37;;;;;;;11.40;4.78;;;;;;;9.46;100.00;98878.59;4956889;28;20043;-86
2022/04/05 20:58:03;;;;;;;12.15;4.68;;;;;;;9.44;100.00;98880.53;4940298;28;20174;-86
2022/04/05 21:00:29;;;;;;;10.18;4.60;;;;;;;9.46;100.00;98882.09;4956429;28;20035;-86
2022/04/05 21:02:54;;;;;;;9.20;5.13;;;;;;;9.42;100.00;98888.69;4959644;28;20035;-86
2022/04/05 21:05:19;;;;;;;13.57;4.90;;;;;;;9.45;100.00;98892.88;4955152;28;20460;-86
2022/04/05 21:07:45;;;;;;;11.68;5.15;;;;;;;9.41;100.00;98891.53;4941958;28;20039;-86
2022/04/05 21:10:11;;;;;;;9.10;5.00;;;;;;;9.43;100.00;98886.88;4960527;28;20042;-86
2022/04/05 21:12:36;;;;;;;8.60;4.80;;;;;;;9.48;100.00;98878.41;4961782;28;20460;-86
2022/04/05 21:15:02;;;;;;;6.78;4.30;;;;;;;9.45;100.00;98876.88;4949705;28;20083;-86
2022/04/05 21:17:27;;;;;;;10.80;4.88;;;;;;;9.44;100.00;98875.19;4941952;28;20089;-86
2022/04/05 21:19:53;;;;;;;8.35;4.38;;;;;;;9.46;100.00;98881.25;4933501;29;20059;-86
2022/04/05 21:22:18;;;;;;;8.25;4.53;;;;;;;9.43;100.00;98882.38;4943725;28;20030;-86
2022/04/05 21:24:44;;;;;;;7.43;4.43;;;;;;;9.40;100.00;98876.50;4943117;28;20121;-86
2022/04/05 21:27:10;;;;;;;11.15;4.60;;;;;;;9.44;100.00;98881.38;4943065;29;20031;-86
2022/04/05 21:29:36;;;;;;;8.10;4.20;;;;;;;9.44;100.00;98868.03;4924301;29;20530;-86
2022/04/05 21:32:07;;;;;;;9.13;4.75;;;;;;;9.43;100.00;98868.19;4924805;28;20091;-86
2022/04/05 21:34:33;;;;;;;11.93;5.00;;;;;;;9.38;100.00;98883.84;4928804;28;20043;-85
2022/04/05 21:36:59;;;;;;;13.57;4.72;;;;;;;9.38;100.00;98867.81;4927415;29;20035;-86
2022/04/05 21:39:26;;;;;;;13.55;4.50;;;;;;;9.39;100.00;98877.50;4925316;29;20087;-86
2022/04/05 21:41:51;;;;;;;7.40;4.10;;;;;;;9.43;100.00;98876.19;4943746;28;20272;-86
2022/04/05 21:44:18;;;;;;;7.18;3.47;;;;;;;9.45;100.00;98871.53;4934416;28;20045;-86
2022/04/05 21:46:47;;;;;;;8.07;3.83;;;;;;;9.40;100.00;98863.16;4926736;29;20855;-86
2022/04/05 21:49:13;;;;;;;13.23;3.97;;;;;;;9.41;100.00;98863.00;4928078;29;20413;-86
2022/04/05 21:51:38;;;;;;;8.63;3.97;;;;;;;9.38;100.00;98852.66;4934329;29;20042;-86
2022/04/05 21:54:03;;;;;;;7.05;3.58;;;;;;;9.38;100.00;98858.00;4933758;29;20118;-86
2022/04/05 21:56:29;;;;;;;6.72;3.80;;;;;;;9.42;100.00;98869.19;4932537;28;20035;-86
2022/04/05 21:58:56;;;;;;;4.93;3.47;;;;;;;9.40;100.00;98860.50;4931857;29;20051;-86
2022/04/05 22:01:23;;;;;;;7.20;3.35;;;;;;;9.35;100.00;98862.81;4925804;29;20133;-86
2022/04/05 22:03:49;;;;;;;9.45;3.45;;;;;;;9.42;100.00;98858.50;4941342;28;20039;-86
2022/04/05 22:06:14;;;;;;;8.30;3.42;;;;;;;9.33;100.00;98851.47;4933354;28;20046;-86
2022/04/05 22:08:40;;;;;;;6.22;3.22;;;;;;;9.38;100.00;98850.00;4932287;29;20035;-86
2022/04/05 22:11:06;;;;;;;10.02;3.42;;;;;;;9.38;100.00;98862.50;4932203;29;20043;-86
2022/04/05 22:13:32;;;;;;;8.35;3.33;;;;;;;9.39;100.00;98854.34;4934032;28;20035;-86
2022/04/05 22:15:57;;;;;;;7.13;3.70;;;;;;;9.32;100.00;98853.28;4941759;28;20477;-86
2022/04/05 22:18:22;;;;;;;10.15;3.80;;;;;;;9.37;100.00;98852.81;4942553;28;20046;-86
2022/04/05 22:20:51;;;;;;;8.45;3.60;;;;;;;9.33;100.00;98848.78;4925124;29;20629;-86
2022/04/05 22:23:17;;;;;;;6.72;3.83;;;;;;;9.36;100.00;98843.13;4932943;29;20062;-86
2022/04/05 22:25:43;;;;;;;8.20;3.97;;;;;;;9.34;100.00;98845.13;4933104;29;20246;-86
2022/04/05 22:28:08;;;;;;;6.38;3.40;;;;;;;9.34;100.00;98837.97;4940466;28;20042;-86
2022/04/05 22:30:34;;;;;;;10.13;3.85;;;;;;;9.36;100.00;98845.81;4940649;28;20050;-86
2022/04/05 22:33:00;;;;;;;6.45;3.72;;;;;;;9.31;100.00;98846.28;4925164;29;20105;-86
2022/04/05 22:35:25;;;;;;;5.57;3.60;;;;;;;9.33;100.00;98844.28;4940475;28;20119;-86
2022/04/05 22:37:50;;;;;;;8.32;3.72;;;;;;;9.32;100.00;98841.78;4942179;29;20046;-86
2022/04/05 22:40:16;;;;;;;9.13;3.60;;;;;;;9.33;100.00;98854.97;4932338;28;20532;-86
2022/04/05 22:42:41;;;;;;;8.45;4.07;;;;;;;9.34;100.00;98855.81;4932430;29;20099;-86
2022/04/05 22:45:07;;;;;;;6.78;4.10;;;;;;;9.34;100.00;98848.63;4939193;29;20118;-86
2022/04/05 22:47:33;;;;;;;6.88;3.70;;;;;;;9.33;100.00;98844.28;4931657;29;20039;-86
2022/04/05 22:49:59;;;;;;;8.13;3.55;;;;;;;9.34;100.00;98837.13;4938283;28;20520;-86
2022/04/05 22:52:24;;;;;;;7.50;3.50;;;;;;;9.32;100.00;98845.28;4940604;28;20381;-86
2022/04/05 22:54:49;;;;;;;7.25;3.53;;;;;;;9.32;100.00;98844.44;4941587;29;20449;-86
2022/04/05 22:57:15;;;;;;;9.10;4.10;;;;;;;9.30;100.00;98844.59;4924157;29;20122;-86
2022/04/05 22:59:41;;;;;;;8.88;4.15;;;;;;;9.34;100.00;98843.28;4940585;29;20039;-86
2022/04/05 23:02:07;;;;;;;8.82;3.80;;;;;;;9.33;100.00;98836.28;4930930;29;20740;-86
2022/04/05 23:04:33;;;;;;;8.10;3.58;;;;;;;9.32;100.00;98839.94;4941454;28;20032;-86
2022/04/05 23:06:58;;;;;;;6.18;3.58;;;;;;;9.35;100.00;98833.47;4933239;29;20034;-86
2022/04/05 23:09:25;;;;;;;7.97;3.75;;;;;;;9.33;100.00;98833.63;4931324;29;20028;-86
2022/04/05 23:11:50;;;;;;;6.78;3.55;;;;;;;9.32;100.00;98831.94;4932241;29;20541;-86
2022/04/05 23:14:15;;;;;;;8.70;3.42;;;;;;;9.31;100.00;98822.28;4940883;28;20122;-86
2022/04/05 23:16:41;;;;;;;7.93;3.45;;;;;;;9.32;100.00;98831.09;4941162;28;20031;-86
2022/04/05 23:19:06;;;;;;;8.38;3.35;;;;;;;9.29;100.00;98829.59;4923011;29;20035;-86
2022/04/05 23:21:31;;;;;;;9.15;3.42;;;;;;;9.29;100.00;98832.25;4924411;29;20045;-86
2022/04/05 23:23:57;;;;;;;7.95;3.60;;;;;;;9.31;100.00;98840.94;4941116;28;20122;-86
2022/04/05 23:26:24;;;;;;;6.70;3.75;;;;;;;9.28;100.00;98819.91;4931787;29;20020;-86
2022/04/05 23:28:49;;;;;;;6.03;3.00;;;;;;;9.32;100.00;98823.09;4939792;28;20231;-86
2022/04/05 23:31:15;;;;;;;9.02;3.95;;;;;;;9.28;100.00;98822.59;4940153;29;20036;-86
2022/04/05 23:33:40;;;;;;;4.82;3.13;;;;;;;9.29;100.00;98820.75;4939518;28;20041;-86
